Terminal Aerodrome Forecast
Issued by NWS Wilmington, OH

Current Version | Previous Version | Graphics & Text | Print | Product List | Glossary On
Versions: 1 2 3 4 5 6 7 8 9 10 11 12 13 14 15 16 17 18 19 20
000
FTUS41 KILN 260200 AAA
TAFILN
TAF AMD
KILN 260222Z 2602/2624 19008KT P6SM SCT040 BKN080
     FM260800 19008KT P6SM BKN035
     FM261300 21012KT P6SM SCT035
     FM261800 20014G24KT P6SM VCTS BKN040CB=

USA.gov is the U.S. government's official web portal to all federal, state and local government web resources and services.